Barhom II — 5IM534 — position and weather

sailwx.info

Track history (hours):
 
Tides and Currents Weather Stations Pressure Air Temp Water Temp Dewpoint Dewpoint Depression Visibility Wind Speed Wind Dir Waves Ship Positions

Barhom II

Last reported at 2015-Mar-03 07:29 UTC. Time now 2015-Mar-05 18:44 UTC.
Position N 37°33' W 000°59'.

Length 83 m; draft 4.5 m.

Type: Cargo ship. MMSI: 677043400.

Date/timePositionNaut miles runAvg speedWind from/ knotsBaromVisibWave heightAir tempDewpointWater temp
2015-Mar-03 07:29N 37°33' W 000°59'910.2
2015-Mar-03 06:33N 37°31' W 000°47'1110.9
2015-Mar-03 05:33N 37°30' W 000°34'1110.7
2015-Mar-03 04:33N 37°30' W 000°20'1010.4
2015-Mar-03 03:33N 37°32' W 000°07'1110.6
2015-Mar-03 02:32N 37°33' E 000°06'1010.5
2015-Mar-03 01:33N 37°33' E 000°19'1210.3
2015-Mar-03 00:26N 37°33' E 000°34'1010.7
2015-Mar-02 23:33N 37°33' E 000°46'1110.8
2015-Mar-02 22:33N 37°33' E 000°59'59 9.8
2015-Mar-02 16:32N 37°38' E 002°14'  
Track history (hours):
 
Tides and Currents Weather Stations Pressure Air Temp Water Temp Dewpoint Dewpoint Depression Visibility Wind Speed Wind Dir Waves Ship Positions

Barhom II

Last reported at 2015-Mar-03 07:29 UTC. Time now 2015-Mar-05 18:44 UTC.
Position N 37°33' W 000°59'.

Length 83 m; draft 4.5 m.

Type: Cargo ship. MMSI: 677043400.

Date/timePositionNaut miles runAvg speedWind from/ knotsBaromVisibWave heightAir tempDewpointWater temp
2015-Mar-03 07:29N 37°33' W 000°59'910.2
2015-Mar-03 06:33N 37°31' W 000°47'1110.9
2015-Mar-03 05:33N 37°30' W 000°34'1110.7
2015-Mar-03 04:33N 37°30' W 000°20'1010.4
2015-Mar-03 03:33N 37°32' W 000°07'1110.6
2015-Mar-03 02:32N 37°33' E 000°06'1010.5
2015-Mar-03 01:33N 37°33' E 000°19'1210.3
2015-Mar-03 00:26N 37°33' E 000°34'1010.7
2015-Mar-02 23:33N 37°33' E 000°46'1110.8
2015-Mar-02 22:33N 37°33' E 000°59'59 9.8
2015-Mar-02 16:32N 37°38' E 002°14'  

Dump ship's entire track history